Terminal Aerodrome Forecast
Issued by NWS Dodge City, KS

Home | Current Version | Previous Version | Text Only | Print | Product List | Glossary On
Versions: 1 2 3 4 5 6 7 8 9 10 11 12 13 14 15 16 17 18 19 20 21 22 23 24 25 26 27 28
000
FTUS43 KDDC 310520
TAFDDC
TAF
KDDC 310520Z 3106/0106 15007KT P6SM BKN035
      TEMPO 3111/3114 5SM BR SCT010 BKN035
     FM311500 18007KT P6SM FEW035=

USA.gov is the U.S. government's official web portal to all federal, state and local government web resources and services.